Alverton, PA (15612)

3:45 PM EDT on September 03, 2015 (GMT -0400)
Near Evergreen Drive-in | | Change Station
CLOSE
Current Station
Personal Weather Station
Location: Mount Pleasant, PA
Elevation: 1060 ft
Nearby Weather Stations

Elev 1060 ft 40.12 °N, 79.55 °W | Updated 21 seconds ago

Partly Cloudy
Partly Cloudy
87.4 °F
Feels Like 90 °F
N
3.1
Wind Variable Wind from NW
Gusts 4.5 mph

Today
High -- | Low -- °F
--% Chance of Precip.
Yesterday
High -- | Low -- °F
Precip. -- in
6:47 AM 7:47 PM
Waning Gibbous, 67% visible
Pressure 29.97 in
Visibility 9.0 miles
Clouds Mostly Cloudy 3800 ft
Heat Index 90 °F
Dew Point 67 °F
Humidity 51%
Rainfall 0.13 in
Snow Depth Not available.
UV 4 out of 12
Pollen 10.10 out of 12
Air Quality Not available.
Flu Activity Not available.
METAR KLBE 031845Z 00000KT 9SM BKN038 29/20 A2997
Pressure 29.97 in
Visibility 9.0 miles
Clouds Mostly Cloudy 3800 ft
Heat Index 90 °F
Dew Point 67 °F
Humidity 51%
Rainfall 0.13 in
Snow Depth Not available.
UV 4 out of 12
Pollen 10.10 out of 12
Air Quality Not available.
Flu Activity Not available.
METAR KLBE 031845Z 00000KT 9SM BKN038 29/20 A2997

10-Day Weather Forecast

×

Almanac

Astronomy

Sep. 03, 2015 Rise Set
Actual Time
Civil Twilight
Nautical Twilight
Astronomical Twilight
Moon
Length of Visible Light
Length of Day
Tomorrow will be .
, % of the Moon is Illuminated

Today's Extremes

State Highs State Lows

Community

WunderPhotos

Upload Photos

1,852,017 photos uploaded!

WunderBlogs® & News

Nearby

Air Quality

  Air Quality AQ Index Pollutant
Not available.

Snow Depth

Station Depth Elevation

Earthquake Activity

City Distance Mag. Time & Date
Minimum magnitude displayed is 2.5.

Coastal Water Temperatures

Place Temperature

Stations

Nearby Weather Stations

Station Location Temp. Windchill Dew Point Humidity Wind Precip. Elev Updated Type